sensor_id;sensor_type;location;lat;lon;timestamp;temperature;humidity
52451;DHT22;38366;53.176;6.540;2022-09-02T00:00:55;15.70;99.90
52451;DHT22;38366;53.176;6.540;2022-09-02T00:03:34;15.70;99.90
52451;DHT22;38366;53.176;6.540;2022-09-02T00:06:01;15.60;99.90
52451;DHT22;38366;53.176;6.540;2022-09-02T00:08:27;15.60;99.90
52451;DHT22;38366;53.176;6.540;2022-09-02T00:10:53;15.50;99.90
52451;DHT22;38366;53.176;6.540;2022-09-02T00:13:20;15.50;99.90
52451;DHT22;38366;53.176;6.540;2022-09-02T00:15:46;15.50;99.90
52451;DHT22;38366;53.176;6.540;2022-09-02T00:18:13;15.50;99.90
52451;DHT22;38366;53.176;6.540;2022-09-02T00:20:42;15.50;99.90
52451;DHT22;38366;53.176;6.540;2022-09-02T00:23:08;15.40;99.90
52451;DHT22;38366;53.176;6.540;2022-09-02T00:25:34;15.40;99.90
52451;DHT22;38366;53.176;6.540;2022-09-02T00:28:00;15.30;99.90
52451;DHT22;38366;53.176;6.540;2022-09-02T00:30:26;15.30;99.90
52451;DHT22;38366;53.176;6.540;2022-09-02T00:32:53;15.30;99.90
52451;DHT22;38366;53.176;6.540;2022-09-02T00:35:18;15.20;99.90
52451;DHT22;38366;53.176;6.540;2022-09-02T00:37:44;15.20;99.90
52451;DHT22;38366;53.176;6.540;2022-09-02T00:40:11;15.20;99.90
52451;DHT22;38366;53.176;6.540;2022-09-02T00:42:37;15.10;99.90
52451;DHT22;38366;53.176;6.540;2022-09-02T00:45:04;15.10;99.90
52451;DHT22;38366;53.176;6.540;2022-09-02T00:47:31;15.10;99.90
52451;DHT22;38366;53.176;6.540;2022-09-02T00:49:57;15.00;99.90
52451;DHT22;38366;53.176;6.540;2022-09-02T00:52:27;15.00;99.90
52451;DHT22;38366;53.176;6.540;2022-09-02T00:55:01;14.90;99.90
52451;DHT22;38366;53.176;6.540;2022-09-02T00:57:34;14.90;99.90
52451;DHT22;38366;53.176;6.540;2022-09-02T01:00:12;14.80;99.90
52451;DHT22;38366;53.176;6.540;2022-09-02T01:02:40;14.80;99.90
52451;DHT22;38366;53.176;6.540;2022-09-02T01:05:14;14.70;99.90
52451;DHT22;38366;53.176;6.540;2022-09-02T01:07:41;14.70;99.90
52451;DHT22;38366;53.176;6.540;2022-09-02T01:10:13;14.70;99.90
52451;DHT22;38366;53.176;6.540;2022-09-02T01:12:39;14.60;99.90
52451;DHT22;38366;53.176;6.540;2022-09-02T01:15:08;14.60;99.90
52451;DHT22;38366;53.176;6.540;2022-09-02T01:17:35;14.60;99.90
52451;DHT22;38366;53.176;6.540;2022-09-02T01:20:13;14.50;99.90
52451;DHT22;38366;53.176;6.540;2022-09-02T01:22:40;14.50;99.90
52451;DHT22;38366;53.176;6.540;2022-09-02T01:25:17;14.50;99.90
52451;DHT22;38366;53.176;6.540;2022-09-02T01:27:43;14.50;99.90
52451;DHT22;38366;53.176;6.540;2022-09-02T01:30:12;14.40;99.90
52451;DHT22;38366;53.176;6.540;2022-09-02T01:32:39;14.40;99.90
52451;DHT22;38366;53.176;6.540;2022-09-02T01:35:05;14.40;99.90
52451;DHT22;38366;53.176;6.540;2022-09-02T01:37:31;14.30;99.90
52451;DHT22;38366;53.176;6.540;2022-09-02T01:39:57;14.30;99.90
52451;DHT22;38366;53.176;6.540;2022-09-02T01:42:24;14.30;99.90
52451;DHT22;38366;53.176;6.540;2022-09-02T01:44:50;14.20;99.90
52451;DHT22;38366;53.176;6.540;2022-09-02T01:47:21;14.20;99.90
52451;DHT22;38366;53.176;6.540;2022-09-02T01:49:48;14.20;99.90
52451;DHT22;38366;53.176;6.540;2022-09-02T01:52:15;14.10;99.90
52451;DHT22;38366;53.176;6.540;2022-09-02T01:54:41;14.10;99.90
52451;DHT22;38366;53.176;6.540;2022-09-02T01:57:07;14.10;99.90
52451;DHT22;38366;53.176;6.540;2022-09-02T01:59:33;14.10;99.90
52451;DHT22;38366;53.176;6.540;2022-09-02T02:01:59;14.10;99.90
52451;DHT22;38366;53.176;6.540;2022-09-02T02:04:24;14.10;99.90
52451;DHT22;38366;53.176;6.540;2022-09-02T02:06:51;14.00;99.90
52451;DHT22;38366;53.176;6.540;2022-09-02T02:09:17;14.00;99.90
52451;DHT22;38366;53.176;6.540;2022-09-02T02:11:43;14.00;99.90
52451;DHT22;38366;53.176;6.540;2022-09-02T02:14:09;14.00;99.90
52451;DHT22;38366;53.176;6.540;2022-09-02T02:16:35;14.00;99.90
52451;DHT22;38366;53.176;6.540;2022-09-02T02:19:01;14.00;99.90
52451;DHT22;38366;53.176;6.540;2022-09-02T02:21:28;14.00;99.90
52451;DHT22;38366;53.176;6.540;2022-09-02T02:23:53;14.00;99.90
52451;DHT22;38366;53.176;6.540;2022-09-02T02:26:19;14.00;99.90
52451;DHT22;38366;53.176;6.540;2022-09-02T02:28:45;13.90;99.90
52451;DHT22;38366;53.176;6.540;2022-09-02T02:31:11;13.90;99.90
52451;DHT22;38366;53.176;6.540;2022-09-02T02:33:37;13.80;99.90
52451;DHT22;38366;53.176;6.540;2022-09-02T02:36:04;13.80;99.90
52451;DHT22;38366;53.176;6.540;2022-09-02T02:38:32;13.80;99.90
52451;DHT22;38366;53.176;6.540;2022-09-02T02:40:58;13.80;99.90
52451;DHT22;38366;53.176;6.540;2022-09-02T02:43:24;13.80;99.90
52451;DHT22;38366;53.176;6.540;2022-09-02T02:45:50;13.70;99.90
52451;DHT22;38366;53.176;6.540;2022-09-02T02:48:16;13.70;99.90
52451;DHT22;38366;53.176;6.540;2022-09-02T02:50:42;13.70;99.90
52451;DHT22;38366;53.176;6.540;2022-09-02T02:53:08;13.60;99.90
52451;DHT22;38366;53.176;6.540;2022-09-02T02:55:34;13.60;99.90
52451;DHT22;38366;53.176;6.540;2022-09-02T02:58:00;13.60;99.90
52451;DHT22;38366;53.176;6.540;2022-09-02T03:00:29;13.60;99.90
52451;DHT22;38366;53.176;6.540;2022-09-02T03:02:57;13.60;99.90
52451;DHT22;38366;53.176;6.540;2022-09-02T03:05:24;13.60;99.90
52451;DHT22;38366;53.176;6.540;2022-09-02T03:07:50;13.50;99.90
52451;DHT22;38366;53.176;6.540;2022-09-02T03:10:16;13.50;99.90
52451;DHT22;38366;53.176;6.540;2022-09-02T03:12:42;13.50;99.90
52451;DHT22;38366;53.176;6.540;2022-09-02T03:15:14;13.50;99.90
52451;DHT22;38366;53.176;6.540;2022-09-02T03:17:42;13.50;99.90
52451;DHT22;38366;53.176;6.540;2022-09-02T03:20:08;13.40;99.90
52451;DHT22;38366;53.176;6.540;2022-09-02T03:22:35;13.40;99.90
52451;DHT22;38366;53.176;6.540;2022-09-02T03:25:05;13.40;99.90
52451;DHT22;38366;53.176;6.540;2022-09-02T03:27:31;13.50;99.90
52451;DHT22;38366;53.176;6.540;2022-09-02T03:29:59;13.40;99.90
52451;DHT22;38366;53.176;6.540;2022-09-02T03:32:25;13.40;99.90
52451;DHT22;38366;53.176;6.540;2022-09-02T03:34:52;13.30;99.90
52451;DHT22;38366;53.176;6.540;2022-09-02T03:37:18;13.30;99.90
52451;DHT22;38366;53.176;6.540;2022-09-02T03:39:44;13.30;99.90
52451;DHT22;38366;53.176;6.540;2022-09-02T03:42:10;13.30;99.90
52451;DHT22;38366;53.176;6.540;2022-09-02T03:44:35;13.30;99.90
52451;DHT22;38366;53.176;6.540;2022-09-02T03:47:01;13.30;99.90
52451;DHT22;38366;53.176;6.540;2022-09-02T03:49:27;13.20;99.90
52451;DHT22;38366;53.176;6.540;2022-09-02T03:51:53;13.20;99.90
52451;DHT22;38366;53.176;6.540;2022-09-02T03:54:19;13.20;99.90
52451;DHT22;38366;53.176;6.540;2022-09-02T03:56:44;13.10;99.90
52451;DHT22;38366;53.176;6.540;2022-09-02T03:59:10;13.10;99.90
52451;DHT22;38366;53.176;6.540;2022-09-02T04:01:36;13.10;99.90
52451;DHT22;38366;53.176;6.540;2022-09-02T04:04:04;13.00;99.90
52451;DHT22;38366;53.176;6.540;2022-09-02T04:06:30;13.00;99.90
52451;DHT22;38366;53.176;6.540;2022-09-02T04:08:56;12.90;99.90
52451;DHT22;38366;53.176;6.540;2022-09-02T04:11:22;12.90;99.90
52451;DHT22;38366;53.176;6.540;2022-09-02T04:13:50;12.90;99.90
52451;DHT22;38366;53.176;6.540;2022-09-02T04:16:19;12.80;99.90
52451;DHT22;38366;53.176;6.540;2022-09-02T04:18:46;12.80;99.90
52451;DHT22;38366;53.176;6.540;2022-09-02T04:21:12;12.80;99.90
52451;DHT22;38366;53.176;6.540;2022-09-02T04:23:38;12.70;99.90
52451;DHT22;38366;53.176;6.540;2022-09-02T04:26:15;12.70;99.90
52451;DHT22;38366;53.176;6.540;2022-09-02T04:28:41;12.70;99.90
52451;DHT22;38366;53.176;6.540;2022-09-02T04:31:10;12.60;99.90
52451;DHT22;38366;53.176;6.540;2022-09-02T04:33:36;12.60;99.90
52451;DHT22;38366;53.176;6.540;2022-09-02T04:36:07;12.60;99.90
52451;DHT22;38366;53.176;6.540;2022-09-02T04:38:34;12.60;99.90
52451;DHT22;38366;53.176;6.540;2022-09-02T04:41:04;12.60;99.90
52451;DHT22;38366;53.176;6.540;2022-09-02T04:43:30;12.60;99.90
52451;DHT22;38366;53.176;6.540;2022-09-02T04:45:56;12.50;99.90
52451;DHT22;38366;53.176;6.540;2022-09-02T04:48:22;12.60;99.90
52451;DHT22;38366;53.176;6.540;2022-09-02T04:50:48;12.50;99.90
52451;DHT22;38366;53.176;6.540;2022-09-02T04:53:14;12.50;99.90
52451;DHT22;38366;53.176;6.540;2022-09-02T04:55:41;12.50;99.90
52451;DHT22;38366;53.176;6.540;2022-09-02T04:58:08;12.50;99.90
52451;DHT22;38366;53.176;6.540;2022-09-02T05:00:36;12.50;99.90
52451;DHT22;38366;53.176;6.540;2022-09-02T05:03:03;12.40;99.90
52451;DHT22;38366;53.176;6.540;2022-09-02T05:05:31;12.40;99.90
52451;DHT22;38366;53.176;6.540;2022-09-02T05:07:57;12.50;99.90
52451;DHT22;38366;53.176;6.540;2022-09-02T05:10:23;12.40;99.90
52451;DHT22;38366;53.176;6.540;2022-09-02T05:12:48;12.40;99.90
52451;DHT22;38366;53.176;6.540;2022-09-02T05:15:14;12.40;99.90
52451;DHT22;38366;53.176;6.540;2022-09-02T05:17:40;12.50;99.90
52451;DHT22;38366;53.176;6.540;2022-09-02T05:20:08;12.40;99.90
52451;DHT22;38366;53.176;6.540;2022-09-02T05:22:35;12.50;99.90
52451;DHT22;38366;53.176;6.540;2022-09-02T05:25:02;12.50;99.90
52451;DHT22;38366;53.176;6.540;2022-09-02T05:27:27;12.50;99.90
52451;DHT22;38366;53.176;6.540;2022-09-02T05:29:54;12.60;99.90
52451;DHT22;38366;53.176;6.540;2022-09-02T05:32:21;12.60;99.90
52451;DHT22;38366;53.176;6.540;2022-09-02T05:34:47;12.70;99.90
52451;DHT22;38366;53.176;6.540;2022-09-02T05:37:14;12.70;99.90
52451;DHT22;38366;53.176;6.540;2022-09-02T05:39:40;12.80;99.90
52451;DHT22;38366;53.176;6.540;2022-09-02T05:42:06;12.90;99.90
52451;DHT22;38366;53.176;6.540;2022-09-02T05:44:32;12.90;99.90
52451;DHT22;38366;53.176;6.540;2022-09-02T05:46:58;13.00;99.90
52451;DHT22;38366;53.176;6.540;2022-09-02T05:49:23;13.10;99.90
52451;DHT22;38366;53.176;6.540;2022-09-02T05:51:55;13.20;99.90
52451;DHT22;38366;53.176;6.540;2022-09-02T05:54:35;13.30;99.90
52451;DHT22;38366;53.176;6.540;2022-09-02T05:57:08;13.30;99.90
52451;DHT22;38366;53.176;6.540;2022-09-02T05:59:35;13.50;99.90
52451;DHT22;38366;53.176;6.540;2022-09-02T06:02:07;13.50;99.90
52451;DHT22;38366;53.176;6.540;2022-09-02T06:04:39;13.60;99.90
52451;DHT22;38366;53.176;6.540;2022-09-02T06:07:05;13.70;99.90
52451;DHT22;38366;53.176;6.540;2022-09-02T06:09:31;13.80;99.90
52451;DHT22;38366;53.176;6.540;2022-09-02T06:11:57;13.90;99.90
52451;DHT22;38366;53.176;6.540;2022-09-02T06:14:24;14.00;99.90
52451;DHT22;38366;53.176;6.540;2022-09-02T06:16:51;14.10;99.90
52451;DHT22;38366;53.176;6.540;2022-09-02T06:19:18;14.10;99.90
52451;DHT22;38366;53.176;6.540;2022-09-02T06:21:43;14.30;99.90
52451;DHT22;38366;53.176;6.540;2022-09-02T06:24:10;14.30;99.90
52451;DHT22;38366;53.176;6.540;2022-09-02T06:26:37;14.50;99.90
52451;DHT22;38366;53.176;6.540;2022-09-02T06:29:04;14.60;99.90
52451;DHT22;38366;53.176;6.540;2022-09-02T06:31:30;14.80;99.90
52451;DHT22;38366;53.176;6.540;2022-09-02T06:33:57;14.90;99.90
52451;DHT22;38366;53.176;6.540;2022-09-02T06:36:24;15.00;99.90
52451;DHT22;38366;53.176;6.540;2022-09-02T06:38:52;15.10;99.90
52451;DHT22;38366;53.176;6.540;2022-09-02T06:41:21;15.30;99.90
52451;DHT22;38366;53.176;6.540;2022-09-02T06:43:54;15.50;99.90
52451;DHT22;38366;53.176;6.540;2022-09-02T06:46:26;15.60;99.90
52451;DHT22;38366;53.176;6.540;2022-09-02T06:48:52;15.80;99.90
52451;DHT22;38366;53.176;6.540;2022-09-02T06:51:26;15.90;99.90
52451;DHT22;38366;53.176;6.540;2022-09-02T06:53:52;16.10;99.90
52451;DHT22;38366;53.176;6.540;2022-09-02T06:56:18;16.70;99.90
52451;DHT22;38366;53.176;6.540;2022-09-02T06:58:44;17.20;99.90
52451;DHT22;38366;53.176;6.540;2022-09-02T07:01:15;17.70;99.90
52451;DHT22;38366;53.176;6.540;2022-09-02T07:18:47;18.80;99.90
52451;DHT22;38366;53.176;6.540;2022-09-02T07:21:16;19.60;99.90
52451;DHT22;38366;53.176;6.540;2022-09-02T07:23:41;19.80;99.90
52451;DHT22;38366;53.176;6.540;2022-09-02T07:26:12;20.10;99.90
52451;DHT22;38366;53.176;6.540;2022-09-02T07:28:42;20.30;99.90
52451;DHT22;38366;53.176;6.540;2022-09-02T07:31:09;20.50;99.90
52451;DHT22;38366;53.176;6.540;2022-09-02T07:33:34;20.80;99.30
52451;DHT22;38366;53.176;6.540;2022-09-02T07:36:05;20.90;99.90
52451;DHT22;38366;53.176;6.540;2022-09-02T07:38:32;21.00;99.80
52451;DHT22;38366;53.176;6.540;2022-09-02T07:40:59;21.30;99.40
52451;DHT22;38366;53.176;6.540;2022-09-02T07:43:27;21.70;99.20
52451;DHT22;38366;53.176;6.540;2022-09-02T07:45:53;21.80;98.00
52451;DHT22;38366;53.176;6.540;2022-09-02T07:48:21;22.00;98.10
52451;DHT22;38366;53.176;6.540;2022-09-02T07:50:47;22.20;98.50
52451;DHT22;38366;53.176;6.540;2022-09-02T07:53:14;22.60;98.00
52451;DHT22;38366;53.176;6.540;2022-09-02T07:55:41;22.90;96.50
52451;DHT22;38366;53.176;6.540;2022-09-02T07:58:07;23.00;95.60
52451;DHT22;38366;53.176;6.540;2022-09-02T08:00:34;23.30;96.90
52451;DHT22;38366;53.176;6.540;2022-09-02T08:03:00;23.20;95.20
52451;DHT22;38366;53.176;6.540;2022-09-02T08:05:26;23.20;95.70
52451;DHT22;38366;53.176;6.540;2022-09-02T08:07:52;23.20;95.00
52451;DHT22;38366;53.176;6.540;2022-09-02T08:10:17;23.10;94.80
52451;DHT22;38366;53.176;6.540;2022-09-02T08:12:45;23.30;94.90
52451;DHT22;38366;53.176;6.540;2022-09-02T08:15:13;23.30;95.10
52451;DHT22;38366;53.176;6.540;2022-09-02T08:17:39;23.30;95.10
52451;DHT22;38366;53.176;6.540;2022-09-02T08:20:07;23.50;95.00
52451;DHT22;38366;53.176;6.540;2022-09-02T08:22:34;23.50;94.70
52451;DHT22;38366;53.176;6.540;2022-09-02T08:25:00;23.50;94.60
52451;DHT22;38366;53.176;6.540;2022-09-02T08:27:26;23.70;94.70
52451;DHT22;38366;53.176;6.540;2022-09-02T08:29:52;23.70;94.20
52451;DHT22;38366;53.176;6.540;2022-09-02T08:32:18;23.90;94.30
52451;DHT22;38366;53.176;6.540;2022-09-02T08:34:44;23.90;94.10
52451;DHT22;38366;53.176;6.540;2022-09-02T08:37:10;23.70;94.00
52451;DHT22;38366;53.176;6.540;2022-09-02T08:39:35;24.00;94.10
52451;DHT22;38366;53.176;6.540;2022-09-02T08:44:43;24.40;94.10
52451;DHT22;38366;53.176;6.540;2022-09-02T08:47:14;24.50;93.90
52451;DHT22;38366;53.176;6.540;2022-09-02T08:49:47;25.00;93.80
52451;DHT22;38366;53.176;6.540;2022-09-02T08:52:38;25.10;93.00
52451;DHT22;38366;53.176;6.540;2022-09-02T08:55:11;25.00;93.40
52451;DHT22;38366;53.176;6.540;2022-09-02T08:57:40;25.00;93.00
52451;DHT22;38366;53.176;6.540;2022-09-02T09:00:07;25.30;93.50
52451;DHT22;38366;53.176;6.540;2022-09-02T09:14:26;25.90;92.60
52451;DHT22;38366;53.176;6.540;2022-09-02T09:17:05;26.40;92.30
52451;DHT22;38366;53.176;6.540;2022-09-02T09:22:04;26.60;91.80
52451;DHT22;38366;53.176;6.540;2022-09-02T09:24:38;26.60;91.50
52451;DHT22;38366;53.176;6.540;2022-09-02T09:27:16;26.70;91.90
52451;DHT22;38366;53.176;6.540;2022-09-02T09:29:42;26.80;91.50
52451;DHT22;38366;53.176;6.540;2022-09-02T09:32:20;26.70;91.20
52451;DHT22;38366;53.176;6.540;2022-09-02T09:37:40;27.30;91.00
52451;DHT22;38366;53.176;6.540;2022-09-02T09:45:35;27.50;90.90
52451;DHT22;38366;53.176;6.540;2022-09-02T09:48:21;27.90;90.50
52451;DHT22;38366;53.176;6.540;2022-09-02T09:53:22;27.80;90.10
52451;DHT22;38366;53.176;6.540;2022-09-02T09:56:05;28.40;90.80
52451;DHT22;38366;53.176;6.540;2022-09-02T09:58:36;28.60;89.10
52451;DHT22;38366;53.176;6.540;2022-09-02T10:01:23;28.70;89.40
52451;DHT22;38366;53.176;6.540;2022-09-02T10:04:10;28.90;88.10
52451;DHT22;38366;53.176;6.540;2022-09-02T10:06:41;28.90;89.00
52451;DHT22;38366;53.176;6.540;2022-09-02T10:11:57;29.50;88.00
52451;DHT22;38366;53.176;6.540;2022-09-02T10:14:23;29.40;87.30
52451;DHT22;38366;53.176;6.540;2022-09-02T10:17:14;29.30;86.80
52451;DHT22;38366;53.176;6.540;2022-09-02T10:25:42;29.40;86.80
52451;DHT22;38366;53.176;6.540;2022-09-02T10:31:49;29.50;88.50
52451;DHT22;38366;53.176;6.540;2022-09-02T10:37:22;29.30;86.70
52451;DHT22;38366;53.176;6.540;2022-09-02T10:40:16;29.50;86.30
52451;DHT22;38366;53.176;6.540;2022-09-02T10:45:27;29.90;86.80
52451;DHT22;38366;53.176;6.540;2022-09-02T10:50:39;30.30;85.60
52451;DHT22;38366;53.176;6.540;2022-09-02T11:01:30;30.50;83.80
52451;DHT22;38366;53.176;6.540;2022-09-02T11:04:02;30.80;85.00
52451;DHT22;38366;53.176;6.540;2022-09-02T11:06:31;30.70;83.70
52451;DHT22;38366;53.176;6.540;2022-09-02T11:09:05;30.60;84.20
52451;DHT22;38366;53.176;6.540;2022-09-02T11:12:01;30.60;83.60
52451;DHT22;38366;53.176;6.540;2022-09-02T11:22:42;30.80;83.50
52451;DHT22;38366;53.176;6.540;2022-09-02T11:28:10;31.10;81.80
52451;DHT22;38366;53.176;6.540;2022-09-02T11:30:50;30.80;82.70
52451;DHT22;38366;53.176;6.540;2022-09-02T11:33:22;30.70;81.20
52451;DHT22;38366;53.176;6.540;2022-09-02T11:35:51;30.60;82.50
52451;DHT22;38366;53.176;6.540;2022-09-02T11:38:39;30.70;82.50
52451;DHT22;38366;53.176;6.540;2022-09-02T11:41:24;31.10;83.10
52451;DHT22;38366;53.176;6.540;2022-09-02T11:44:27;31.40;82.10
52451;DHT22;38366;53.176;6.540;2022-09-02T11:49:53;31.40;81.70
52451;DHT22;38366;53.176;6.540;2022-09-02T11:55:23;31.80;81.60
52451;DHT22;38366;53.176;6.540;2022-09-02T11:57:54;31.70;81.40
52451;DHT22;38366;53.176;6.540;2022-09-02T12:00:33;31.50;81.00
52451;DHT22;38366;53.176;6.540;2022-09-02T12:08:01;31.30;81.00
52451;DHT22;38366;53.176;6.540;2022-09-02T12:13:38;31.80;80.10
52451;DHT22;38366;53.176;6.540;2022-09-02T12:21:27;31.80;80.40
52451;DHT22;38366;53.176;6.540;2022-09-02T12:26:22;31.40;79.10
52451;DHT22;38366;53.176;6.540;2022-09-02T12:28:49;31.70;78.70
52451;DHT22;38366;53.176;6.540;2022-09-02T12:31:36;31.50;78.90
52451;DHT22;38366;53.176;6.540;2022-09-02T12:36:52;31.90;78.50
52451;DHT22;38366;53.176;6.540;2022-09-02T12:44:51;32.50;77.30
52451;DHT22;38366;53.176;6.540;2022-09-02T12:50:49;32.60;78.40
52451;DHT22;38366;53.176;6.540;2022-09-02T12:56:05;32.50;77.40
52451;DHT22;38366;53.176;6.540;2022-09-02T12:58:51;32.80;77.40
52451;DHT22;38366;53.176;6.540;2022-09-02T13:02:40;32.60;77.10
52451;DHT22;38366;53.176;6.540;2022-09-02T13:26:34;33.00;76.20
52451;DHT22;38366;53.176;6.540;2022-09-02T13:32:11;33.10;74.90
52451;DHT22;38366;53.176;6.540;2022-09-02T13:34:41;33.50;75.70
52451;DHT22;38366;53.176;6.540;2022-09-02T13:37:27;33.30;75.30
52451;DHT22;38366;53.176;6.540;2022-09-02T13:39:54;31.80;75.90
52451;DHT22;38366;53.176;6.540;2022-09-02T13:42:25;31.40;77.00
52451;DHT22;38366;53.176;6.540;2022-09-02T13:45:15;30.60;77.00
52451;DHT22;38366;53.176;6.540;2022-09-02T13:47:45;30.00;77.00
52451;DHT22;38366;53.176;6.540;2022-09-02T13:50:16;29.90;77.10
52451;DHT22;38366;53.176;6.540;2022-09-02T13:52:44;29.30;77.30
52451;DHT22;38366;53.176;6.540;2022-09-02T13:55:12;29.00;77.30
52451;DHT22;38366;53.176;6.540;2022-09-02T13:57:44;29.00;77.90
52451;DHT22;38366;53.176;6.540;2022-09-02T14:00:26;29.00;79.20
52451;DHT22;38366;53.176;6.540;2022-09-02T14:02:58;29.20;77.80
52451;DHT22;38366;53.176;6.540;2022-09-02T14:05:26;29.40;78.10
52451;DHT22;38366;53.176;6.540;2022-09-02T14:07:59;29.40;78.30
52451;DHT22;38366;53.176;6.540;2022-09-02T14:10:27;29.40;78.20
52451;DHT22;38366;53.176;6.540;2022-09-02T14:12:54;29.10;77.90
52451;DHT22;38366;53.176;6.540;2022-09-02T14:15:31;28.70;77.90
52451;DHT22;38366;53.176;6.540;2022-09-02T14:18:21;28.70;77.90
52451;DHT22;38366;53.176;6.540;2022-09-02T14:20:59;28.90;77.90
52451;DHT22;38366;53.176;6.540;2022-09-02T14:23:27;29.00;77.80
52451;DHT22;38366;53.176;6.540;2022-09-02T14:25:56;28.80;77.80
52451;DHT22;38366;53.176;6.540;2022-09-02T14:28:25;28.50;77.60
52451;DHT22;38366;53.176;6.540;2022-09-02T14:31:38;28.60;78.40
52451;DHT22;38366;53.176;6.540;2022-09-02T14:33:45;28.50;78.30
52451;DHT22;38366;53.176;6.540;2022-09-02T14:36:32;28.40;77.70
52451;DHT22;38366;53.176;6.540;2022-09-02T14:39:16;28.60;77.00
52451;DHT22;38366;53.176;6.540;2022-09-02T14:41:48;28.60;77.70
52451;DHT22;38366;53.176;6.540;2022-09-02T14:44:22;28.70;77.80
52451;DHT22;38366;53.176;6.540;2022-09-02T14:46:58;28.90;78.80
52451;DHT22;38366;53.176;6.540;2022-09-02T14:49:51;28.90;77.90
52451;DHT22;38366;53.176;6.540;2022-09-02T14:52:24;28.80;78.30
52451;DHT22;38366;53.176;6.540;2022-09-02T14:54:52;28.70;77.90
52451;DHT22;38366;53.176;6.540;2022-09-02T14:57:30;28.60;77.80
52451;DHT22;38366;53.176;6.540;2022-09-02T15:00:12;28.50;77.70
52451;DHT22;38366;53.176;6.540;2022-09-02T15:02:44;28.60;77.80
52451;DHT22;38366;53.176;6.540;2022-09-02T15:05:13;28.30;78.60
52451;DHT22;38366;53.176;6.540;2022-09-02T15:07:39;28.30;78.50
52451;DHT22;38366;53.176;6.540;2022-09-02T15:10:06;28.10;78.40
52451;DHT22;38366;53.176;6.540;2022-09-02T15:12:42;27.90;78.20
52451;DHT22;38366;53.176;6.540;2022-09-02T15:15:10;27.80;78.00
52451;DHT22;38366;53.176;6.540;2022-09-02T15:17:36;27.60;78.50
52451;DHT22;38366;53.176;6.540;2022-09-02T15:20:02;27.50;79.10
52451;DHT22;38366;53.176;6.540;2022-09-02T15:22:28;27.40;78.40
52451;DHT22;38366;53.176;6.540;2022-09-02T15:24:54;27.40;78.90
52451;DHT22;38366;53.176;6.540;2022-09-02T15:27:21;27.40;79.40
52451;DHT22;38366;53.176;6.540;2022-09-02T15:29:47;27.40;78.90
52451;DHT22;38366;53.176;6.540;2022-09-02T15:32:12;27.50;79.20
52451;DHT22;38366;53.176;6.540;2022-09-02T15:34:38;27.40;79.30
52451;DHT22;38366;53.176;6.540;2022-09-02T15:37:04;27.20;79.30
52451;DHT22;38366;53.176;6.540;2022-09-02T15:39:29;27.20;79.20
52451;DHT22;38366;53.176;6.540;2022-09-02T15:41:55;27.10;79.40
52451;DHT22;38366;53.176;6.540;2022-09-02T15:44:21;26.80;79.40
52451;DHT22;38366;53.176;6.540;2022-09-02T15:46:50;26.70;80.10
52451;DHT22;38366;53.176;6.540;2022-09-02T15:49:16;26.80;80.40
52451;DHT22;38366;53.176;6.540;2022-09-02T15:51:43;26.90;80.60
52451;DHT22;38366;53.176;6.540;2022-09-02T15:54:11;26.90;80.80
52451;DHT22;38366;53.176;6.540;2022-09-02T15:56:39;27.00;81.00
52451;DHT22;38366;53.176;6.540;2022-09-02T15:59:09;27.00;80.80
52451;DHT22;38366;53.176;6.540;2022-09-02T16:01:38;26.80;80.40
52451;DHT22;38366;53.176;6.540;2022-09-02T16:04:05;26.70;80.50
52451;DHT22;38366;53.176;6.540;2022-09-02T16:06:33;26.70;80.50
52451;DHT22;38366;53.176;6.540;2022-09-02T16:09:00;26.50;80.70
52451;DHT22;38366;53.176;6.540;2022-09-02T16:11:26;26.30;80.90
52451;DHT22;38366;53.176;6.540;2022-09-02T16:13:53;26.30;81.20
52451;DHT22;38366;53.176;6.540;2022-09-02T16:16:18;26.20;81.20
52451;DHT22;38366;53.176;6.540;2022-09-02T16:18:49;26.20;81.60
52451;DHT22;38366;53.176;6.540;2022-09-02T16:21:16;26.00;81.30
52451;DHT22;38366;53.176;6.540;2022-09-02T16:23:42;26.00;81.50
52451;DHT22;38366;53.176;6.540;2022-09-02T16:28:52;25.80;82.20
52451;DHT22;38366;53.176;6.540;2022-09-02T16:31:19;25.90;82.10
52451;DHT22;38366;53.176;6.540;2022-09-02T16:34:17;25.90;81.90
52451;DHT22;38366;53.176;6.540;2022-09-02T16:36:46;25.80;82.50
52451;DHT22;38366;53.176;6.540;2022-09-02T16:39:12;25.70;82.60
52451;DHT22;38366;53.176;6.540;2022-09-02T16:41:41;25.70;82.70
52451;DHT22;38366;53.176;6.540;2022-09-02T16:44:14;25.60;82.40
52451;DHT22;38366;53.176;6.540;2022-09-02T16:46:40;25.50;82.70
52451;DHT22;38366;53.176;6.540;2022-09-02T16:49:08;25.50;83.10
52451;DHT22;38366;53.176;6.540;2022-09-02T16:51:34;25.50;83.30
52451;DHT22;38366;53.176;6.540;2022-09-02T16:54:02;25.50;83.20
52451;DHT22;38366;53.176;6.540;2022-09-02T16:56:28;25.50;83.30
52451;DHT22;38366;53.176;6.540;2022-09-02T16:58:55;25.50;83.30
52451;DHT22;38366;53.176;6.540;2022-09-02T17:01:21;25.40;83.50
52451;DHT22;38366;53.176;6.540;2022-09-02T17:03:48;25.30;83.90
52451;DHT22;38366;53.176;6.540;2022-09-02T17:06:14;25.30;84.00
52451;DHT22;38366;53.176;6.540;2022-09-02T17:08:40;25.20;84.20
52451;DHT22;38366;53.176;6.540;2022-09-02T17:11:17;25.20;84.40
52451;DHT22;38366;53.176;6.540;2022-09-02T17:13:47;25.20;84.10
52451;DHT22;38366;53.176;6.540;2022-09-02T17:16:13;25.10;84.40
52451;DHT22;38366;53.176;6.540;2022-09-02T17:18:39;25.00;84.50
52451;DHT22;38366;53.176;6.540;2022-09-02T17:21:55;25.00;85.20
52451;DHT22;38366;53.176;6.540;2022-09-02T17:24:16;25.00;84.90
52451;DHT22;38366;53.176;6.540;2022-09-02T17:26:45;24.90;84.80
52451;DHT22;38366;53.176;6.540;2022-09-02T17:29:13;24.90;85.10
52451;DHT22;38366;53.176;6.540;2022-09-02T17:31:41;24.90;85.20
52451;DHT22;38366;53.176;6.540;2022-09-02T17:34:08;24.90;85.30
52451;DHT22;38366;53.176;6.540;2022-09-02T17:36:37;24.90;85.10
52451;DHT22;38366;53.176;6.540;2022-09-02T17:39:05;24.80;85.40
52451;DHT22;38366;53.176;6.540;2022-09-02T17:41:31;24.70;85.50
52451;DHT22;38366;53.176;6.540;2022-09-02T17:44:16;24.60;85.80
52451;DHT22;38366;53.176;6.540;2022-09-02T17:46:43;24.50;86.00
52451;DHT22;38366;53.176;6.540;2022-09-02T17:49:10;24.30;85.90
52451;DHT22;38366;53.176;6.540;2022-09-02T17:51:36;24.20;86.50
52451;DHT22;38366;53.176;6.540;2022-09-02T17:54:04;24.00;86.50
52451;DHT22;38366;53.176;6.540;2022-09-02T18:10:32;23.50;88.20
52451;DHT22;38366;53.176;6.540;2022-09-02T18:13:10;23.40;88.10
52451;DHT22;38366;53.176;6.540;2022-09-02T18:18:23;23.20;88.90
52451;DHT22;38366;53.176;6.540;2022-09-02T18:20:54;23.20;88.70
52451;DHT22;38366;53.176;6.540;2022-09-02T18:23:52;23.20;89.00
52451;DHT22;38366;53.176;6.540;2022-09-02T18:45:46;22.60;90.90
52451;DHT22;38366;53.176;6.540;2022-09-02T18:48:21;22.40;90.90